Time;durP1;ratioP1;P1;durP2;ratioP2;P2;SDS_P1;SDS_P2;PMS_P1;PMS_P2;Temp;Humidity;BMP_temperature;BMP_pressure;BME280_temperature;BME280_humidity;BME280_pressure;Samples;Min_cycle;Max_cycle;Signal;HPM_P1;HPM_P2
2022/05/06 00:00:10;;;;;;;19.67;10.02;;;;;;;;;;4973242;28;20026;-65
2022/05/06 00:02:36;;;;;;;20.35;10.10;;;;;;;;;;4972586;28;20084;-65
2022/05/06 00:05:03;;;;;;;21.42;9.98;;;;;;;;;;4973292;28;20039;-65
2022/05/06 00:07:31;;;;;;;29.08;11.02;;;;;;;;;;4977848;28;20030;-65
2022/05/06 00:09:57;;;;;;;23.05;10.43;;;;;;;;;;4992278;28;20042;-65
2022/05/06 00:12:23;;;;;;;22.92;10.20;;;;;;;;;;4992575;28;20113;-65
2022/05/06 00:14:50;;;;;;;22.73;10.13;;;;;;;;;;4991823;28;20027;-65
2022/05/06 00:17:16;;;;;;;18.15;9.45;;;;;;;;;;4991590;28;20107;-65
2022/05/06 00:19:42;;;;;;;22.33;9.70;;;;;;;;;;4992215;28;20440;-65
2022/05/06 00:22:09;;;;;;;23.38;9.80;;;;;;;;;;4992320;28;20071;-65
2022/05/06 00:24:35;;;;;;;22.27;9.88;;;;;;;;;;4992062;28;20029;-65
2022/05/06 00:27:02;;;;;;;18.73;9.48;;;;;;;;;;4992441;28;20117;-64
2022/05/06 00:29:28;;;;;;;18.30;9.05;;;;;;;;;;4992116;28;20018;-65
2022/05/06 00:31:54;;;;;;;20.98;9.68;;;;;;;;;;4992042;28;20168;-64
2022/05/06 00:34:20;;;;;;;17.65;9.23;;;;;;;;;;4990933;28;20030;-65
2022/05/06 00:36:48;;;;;;;16.85;8.85;;;;;;;;;;4990624;28;20027;-65
2022/05/06 00:39:14;;;;;;;15.82;8.57;;;;;;;;;;4992117;28;20022;-65
2022/05/06 00:41:41;;;;;;;18.23;9.20;;;;;;;;;;4991944;28;20037;-65
2022/05/06 00:44:07;;;;;;;21.75;9.23;;;;;;;;;;4992028;28;20119;-65
2022/05/06 00:46:37;;;;;;;18.33;8.07;;;;;;;;;;4991672;28;20033;-65
2022/05/06 00:49:04;;;;;;;17.70;9.25;;;;;;;;;;4991993;28;20116;-65
2022/05/06 00:51:30;;;;;;;19.30;9.88;;;;;;;;;;4991810;28;20029;-65
2022/05/06 00:53:57;;;;;;;16.95;9.35;;;;;;;;;;4991716;28;20117;-65
2022/05/06 00:56:24;;;;;;;25.45;11.15;;;;;;;;;;4991922;28;20030;-65
2022/05/06 00:58:51;;;;;;;21.40;9.32;;;;;;;;;;4990323;28;20061;-65
2022/05/06 01:01:18;;;;;;;25.38;9.80;;;;;;;;;;4990436;28;20076;-64
2022/05/06 01:03:44;;;;;;;22.80;10.60;;;;;;;;;;4972153;28;20114;-65
2022/05/06 01:06:13;;;;;;;21.88;10.05;;;;;;;;;;4979685;28;20117;-65
2022/05/06 01:08:41;;;;;;;27.13;10.23;;;;;;;;;;4989808;28;20043;-64
2022/05/06 01:11:07;;;;;;;27.33;9.90;;;;;;;;;;4990247;28;20091;-64
2022/05/06 01:13:40;;;;;;;24.65;10.93;;;;;;;;;;4990149;28;20056;-65
2022/05/06 01:16:07;;;;;;;23.23;11.10;;;;;;;;;;4989995;28;20037;-65
2022/05/06 01:18:41;;;;;;;22.98;9.82;;;;;;;;;;4989766;28;20083;-65
2022/05/06 01:21:07;;;;;;;28.25;10.65;;;;;;;;;;4991648;28;20033;-65
2022/05/06 01:23:35;;;;;;;22.95;10.02;;;;;;;;;;4991227;28;20027;-65
2022/05/06 01:26:01;;;;;;;18.02;9.77;;;;;;;;;;4991274;28;20032;-65
2022/05/06 01:28:28;;;;;;;17.25;9.93;;;;;;;;;;4991338;28;20026;-64
2022/05/06 01:31:00;;;;;;;26.73;10.15;;;;;;;;;;4989626;28;20065;-64
2022/05/06 01:33:28;;;;;;;25.98;9.95;;;;;;;;;;4991264;28;20034;-64
2022/05/06 01:36:04;;;;;;;24.52;10.38;;;;;;;;;;4989877;28;20035;-64
2022/05/06 01:38:43;;;;;;;21.58;10.50;;;;;;;;;;4991140;28;20035;-64
2022/05/06 01:41:16;;;;;;;20.77;10.15;;;;;;;;;;4989951;28;20030;-64
2022/05/06 01:44:04;;;;;;;23.27;10.05;;;;;;;;;;4989456;28;20453;-65
2022/05/06 01:46:30;;;;;;;23.07;10.30;;;;;;;;;;4989780;28;20163;-65
2022/05/06 01:49:02;;;;;;;23.70;9.90;;;;;;;;;;4989726;28;20030;-65
2022/05/06 01:51:30;;;;;;;26.23;11.48;;;;;;;;;;4989765;28;20034;-64
2022/05/06 01:53:58;;;;;;;22.23;9.52;;;;;;;;;;4989758;28;20104;-65
2022/05/06 01:56:25;;;;;;;26.73;10.52;;;;;;;;;;4991042;28;20036;-65
2022/05/06 01:58:53;;;;;;;21.27;10.00;;;;;;;;;;4988985;28;20038;-65
2022/05/06 02:01:20;;;;;;;20.45;10.57;;;;;;;;;;4989472;28;20038;-65
2022/05/06 02:06:33;;;;;;;19.70;10.18;;;;;;;;;;4989498;28;20030;-65
2022/05/06 02:09:19;;;;;;;21.27;9.93;;;;;;;;;;4989287;28;20043;-64
2022/05/06 02:12:07;;;;;;;18.00;9.50;;;;;;;;;;4989528;28;20027;-65
2022/05/06 02:15:00;;;;;;;18.53;9.40;;;;;;;;;;4993841;28;20411;-65
2022/05/06 02:17:53;;;;;;;17.77;9.75;;;;;;;;;;4989138;28;20034;-65
2022/05/06 02:20:42;;;;;;;22.45;9.73;;;;;;;;;;5000604;28;20030;-65
2022/05/06 02:23:23;;;;;;;22.60;9.40;;;;;;;;;;4989216;28;20040;-65
2022/05/06 02:26:00;;;;;;;28.55;9.95;;;;;;;;;;4989095;28;20030;-65
2022/05/06 02:28:34;;;;;;;17.75;9.13;;;;;;;;;;4988809;28;20076;-65
2022/05/06 02:33:50;;;;;;;22.20;9.60;;;;;;;;;;4988981;28;20117;-65
2022/05/06 02:36:39;;;;;;;17.33;9.85;;;;;;;;;;4990158;28;20070;-65
2022/05/06 02:39:06;;;;;;;15.73;9.70;;;;;;;;;;4988264;28;20060;-65
2022/05/06 02:41:34;;;;;;;16.33;9.60;;;;;;;;;;4989250;28;20406;-65
2022/05/06 02:44:02;;;;;;;25.33;9.80;;;;;;;;;;4988686;28;20076;-65
2022/05/06 02:46:35;;;;;;;20.25;9.50;;;;;;;;;;4989112;28;20026;-65
2022/05/06 02:49:02;;;;;;;21.85;10.25;;;;;;;;;;4988783;28;20037;-65
2022/05/06 02:51:28;;;;;;;21.95;10.80;;;;;;;;;;4989144;28;20033;-65
2022/05/06 02:53:56;;;;;;;19.27;9.75;;;;;;;;;;4988595;28;20037;-65
2022/05/06 02:56:28;;;;;;;21.05;9.80;;;;;;;;;;4988651;28;20125;-65
2022/05/06 02:58:58;;;;;;;17.08;9.07;;;;;;;;;;4988508;28;20035;-65
2022/05/06 03:01:28;;;;;;;18.73;9.45;;;;;;;;;;4988847;28;20034;-65
2022/05/06 03:03:58;;;;;;;17.13;8.73;;;;;;;;;;4988560;28;20441;-65
2022/05/06 03:06:24;;;;;;;18.20;9.13;;;;;;;;;;4988693;28;20027;-65
2022/05/06 03:08:52;;;;;;;22.85;9.70;;;;;;;;;;4988210;28;20074;-65
2022/05/06 03:11:24;;;;;;;21.87;8.80;;;;;;;;;;4988475;28;20046;-65
2022/05/06 03:13:59;;;;;;;13.38;8.55;;;;;;;;;;4988255;28;20261;-65
2022/05/06 03:16:31;;;;;;;20.42;9.48;;;;;;;;;;4988687;28;20311;-65
2022/05/06 03:19:00;;;;;;;18.05;8.77;;;;;;;;;;4989621;28;20026;-65
2022/05/06 03:21:26;;;;;;;20.58;9.25;;;;;;;;;;4988546;28;20034;-65
2022/05/06 03:23:52;;;;;;;18.33;10.05;;;;;;;;;;4989626;28;20076;-65
2022/05/06 03:26:19;;;;;;;19.33;10.20;;;;;;;;;;4989423;28;20098;-65
2022/05/06 03:28:45;;;;;;;17.25;9.95;;;;;;;;;;4989456;28;20453;-65
2022/05/06 03:31:13;;;;;;;16.80;9.30;;;;;;;;;;4988583;28;20440;-65
2022/05/06 03:33:49;;;;;;;16.10;9.40;;;;;;;;;;4988304;28;20062;-65
2022/05/06 03:36:24;;;;;;;17.08;9.50;;;;;;;;;;4988489;28;20095;-65
2022/05/06 03:38:57;;;;;;;22.20;9.50;;;;;;;;;;4987016;28;20125;-65
2022/05/06 03:41:27;;;;;;;16.13;8.80;;;;;;;;;;4988050;28;20058;-65
2022/05/06 03:43:53;;;;;;;16.30;9.43;;;;;;;;;;4987991;28;20030;-65
2022/05/06 03:46:22;;;;;;;18.50;9.48;;;;;;;;;;4988368;28;20401;-65
2022/05/06 03:48:51;;;;;;;17.83;9.57;;;;;;;;;;4970585;28;20084;-65
2022/05/06 03:51:21;;;;;;;21.38;9.23;;;;;;;;;;4971811;28;20035;-65
2022/05/06 03:53:55;;;;;;;15.73;9.07;;;;;;;;;;4972127;28;20067;-65
2022/05/06 03:56:24;;;;;;;17.65;10.88;;;;;;;;;;4971849;28;20046;-65
2022/05/06 03:58:52;;;;;;;16.25;9.57;;;;;;;;;;4971762;28;20030;-65
2022/05/06 04:01:19;;;;;;;15.15;9.63;;;;;;;;;;4972010;28;20037;-65
2022/05/06 04:03:50;;;;;;;20.10;9.88;;;;;;;;;;4971928;28;20026;-65
2022/05/06 04:06:18;;;;;;;19.73;10.55;;;;;;;;;;4971777;28;20526;-65
2022/05/06 04:08:50;;;;;;;14.73;8.97;;;;;;;;;;4987156;28;20054;-65
2022/05/06 04:11:19;;;;;;;18.67;9.68;;;;;;;;;;4990976;28;20462;-65
2022/05/06 04:13:47;;;;;;;20.55;9.35;;;;;;;;;;4991285;28;20038;-65
2022/05/06 04:16:14;;;;;;;17.40;10.00;;;;;;;;;;4990991;28;20031;-65
2022/05/06 04:18:41;;;;;;;18.58;9.70;;;;;;;;;;4991112;28;20027;-65
2022/05/06 04:23:55;;;;;;;21.85;9.90;;;;;;;;;;4990515;28;20030;-65
2022/05/06 04:26:21;;;;;;;18.30;9.75;;;;;;;;;;4990934;28;20031;-65
2022/05/06 04:28:52;;;;;;;22.60;10.20;;;;;;;;;;4990897;28;20060;-65
2022/05/06 04:31:18;;;;;;;17.40;8.88;;;;;;;;;;4992158;28;20034;-65
2022/05/06 04:33:46;;;;;;;17.20;10.05;;;;;;;;;;4990887;28;20050;-65
2022/05/06 04:36:28;;;;;;;21.05;10.15;;;;;;;;;;4990978;28;20066;-65
2022/05/06 04:38:59;;;;;;;18.02;9.50;;;;;;;;;;4990349;28;20403;-65
2022/05/06 04:41:28;;;;;;;19.58;10.60;;;;;;;;;;4990835;28;20109;-65
2022/05/06 04:43:55;;;;;;;19.73;9.40;;;;;;;;;;4990686;28;20087;-65
2022/05/06 04:46:22;;;;;;;20.67;10.23;;;;;;;;;;4991094;28;20552;-65
2022/05/06 04:48:50;;;;;;;17.92;9.52;;;;;;;;;;4990553;28;20113;-65
2022/05/06 04:51:18;;;;;;;20.92;9.80;;;;;;;;;;4990650;28;20036;-65
2022/05/06 04:53:44;;;;;;;18.52;9.98;;;;;;;;;;4990384;28;20117;-65
2022/05/06 04:56:11;;;;;;;18.55;9.43;;;;;;;;;;4990921;28;20034;-65
2022/05/06 04:58:40;;;;;;;18.75;9.38;;;;;;;;;;4990925;28;20082;-65
2022/05/06 05:01:13;;;;;;;18.10;9.67;;;;;;;;;;4984140;28;20026;-65
2022/05/06 05:03:40;;;;;;;18.15;9.90;;;;;;;;;;4992585;28;20392;-65
2022/05/06 05:06:07;;;;;;;17.90;9.93;;;;;;;;;;4976762;28;20492;-65
2022/05/06 05:08:36;;;;;;;18.05;9.38;;;;;;;;;;4975556;28;20194;-65
2022/05/06 05:11:03;;;;;;;17.23;8.88;;;;;;;;;;4983918;28;20037;-65
2022/05/06 05:13:38;;;;;;;18.35;9.48;;;;;;;;;;4984287;28;20131;-65
2022/05/06 05:16:07;;;;;;;16.55;9.07;;;;;;;;;;4984717;28;20041;-65
2022/05/06 05:18:34;;;;;;;21.73;10.55;;;;;;;;;;5015940;28;20028;-65
2022/05/06 05:21:01;;;;;;;15.00;9.00;;;;;;;;;;4999832;28;20493;-65
2022/05/06 05:23:29;;;;;;;15.48;8.73;;;;;;;;;;4981730;28;20038;-65
2022/05/06 05:25:56;;;;;;;19.20;9.75;;;;;;;;;;4981484;28;20029;-65
2022/05/06 05:28:23;;;;;;;17.35;9.80;;;;;;;;;;4986051;28;20111;-65
2022/05/06 05:30:49;;;;;;;21.25;9.60;;;;;;;;;;4979632;28;20500;-65
2022/05/06 05:33:16;;;;;;;20.02;8.90;;;;;;;;;;4982187;28;20039;-65
2022/05/06 05:35:49;;;;;;;15.38;8.85;;;;;;;;;;4974093;28;20030;-65
2022/05/06 05:38:15;;;;;;;20.65;10.07;;;;;;;;;;4969534;28;20031;-65
2022/05/06 05:40:42;;;;;;;15.82;8.98;;;;;;;;;;4979921;28;20019;-65
2022/05/06 05:48:19;;;;;;;17.38;8.48;;;;;;;;;;4978331;28;20404;-65
2022/05/06 05:48:44;;;;;;;19.60;9.57;;;;;;;;;;4978106;28;20065;-65
2022/05/06 05:51:11;;;;;;;20.00;9.20;;;;;;;;;;4980876;28;20031;-65
2022/05/06 05:53:46;;;;;;;20.73;10.25;;;;;;;;;;4975339;28;20042;-65
2022/05/06 05:56:13;;;;;;;17.42;9.18;;;;;;;;;;4980322;28;20034;-65
2022/05/06 05:58:40;;;;;;;17.38;9.77;;;;;;;;;;5031300;28;20115;-65
2022/05/06 06:01:09;;;;;;;16.05;10.02;;;;;;;;;;4982621;28;20069;-65
2022/05/06 06:03:39;;;;;;;14.48;9.07;;;;;;;;;;4979970;28;20568;-65
2022/05/06 06:06:06;;;;;;;17.02;9.20;;;;;;;;;;5003008;28;20034;-65
2022/05/06 06:08:33;;;;;;;19.88;9.77;;;;;;;;;;4969098;28;20043;-65
2022/05/06 06:11:04;;;;;;;17.80;10.05;;;;;;;;;;4985640;28;20042;-65
2022/05/06 06:13:36;;;;;;;22.08;10.25;;;;;;;;;;4987714;28;20456;-65
2022/05/06 06:16:04;;;;;;;16.83;9.88;;;;;;;;;;4981453;28;20129;-65
2022/05/06 06:18:30;;;;;;;18.33;9.35;;;;;;;;;;4976451;28;20065;-65
2022/05/06 06:21:00;;;;;;;26.20;10.32;;;;;;;;;;4979512;28;20139;-65
2022/05/06 06:23:30;;;;;;;18.80;9.77;;;;;;;;;;4977425;28;20035;-64
2022/05/06 06:25:57;;;;;;;18.58;9.85;;;;;;;;;;4985220;28;20037;-66
2022/05/06 06:28:24;;;;;;;18.75;10.35;;;;;;;;;;5001513;28;20026;-66
2022/05/06 06:30:50;;;;;;;18.40;9.40;;;;;;;;;;4981125;28;20125;-65
2022/05/06 06:33:17;;;;;;;14.73;8.98;;;;;;;;;;4981438;28;20074;-66
2022/05/06 06:35:44;;;;;;;15.75;8.05;;;;;;;;;;4972431;28;20038;-66
2022/05/06 06:38:11;;;;;;;17.67;9.20;;;;;;;;;;4980913;28;20434;-66
2022/05/06 06:40:41;;;;;;;21.60;9.20;;;;;;;;;;4993454;28;20456;-66
2022/05/06 06:43:07;;;;;;;20.75;10.38;;;;;;;;;;4972272;28;20265;-66
2022/05/06 06:45:48;;;;;;;19.60;9.90;;;;;;;;;;4968906;28;20039;-66
2022/05/06 06:48:32;;;;;;;16.70;9.38;;;;;;;;;;4984207;28;20042;-66
2022/05/06 06:51:18;;;;;;;14.13;8.32;;;;;;;;;;4977853;28;20177;-66
2022/05/06 06:53:53;;;;;;;16.00;8.65;;;;;;;;;;4973319;28;20497;-66
2022/05/06 06:56:20;;;;;;;18.33;9.23;;;;;;;;;;4974061;28;20100;-66
2022/05/06 06:58:46;;;;;;;17.20;8.98;;;;;;;;;;4973582;28;20067;-66
2022/05/06 07:01:12;;;;;;;15.20;8.73;;;;;;;;;;4972856;28;20023;-65
2022/05/06 07:03:38;;;;;;;16.48;8.55;;;;;;;;;;4982831;28;20041;-66
2022/05/06 07:11:53;;;;;;;13.82;8.13;;;;;;;;;;4972156;28;20034;-66
2022/05/06 07:14:21;;;;;;;15.95;8.75;;;;;;;;;;4981000;28;20026;-65
2022/05/06 07:16:48;;;;;;;17.40;9.38;;;;;;;;;;4971987;28;20125;-65
2022/05/06 07:19:14;;;;;;;20.75;8.77;;;;;;;;;;4976421;28;20022;-66
2022/05/06 07:21:41;;;;;;;18.20;8.00;;;;;;;;;;4977704;28;20021;-66
2022/05/06 07:24:07;;;;;;;14.45;7.63;;;;;;;;;;4975760;28;20041;-66
2022/05/06 07:26:33;;;;;;;18.58;8.18;;;;;;;;;;5012393;28;20015;-65
2022/05/06 07:28:59;;;;;;;18.50;7.85;;;;;;;;;;4984102;28;20484;-66
2022/05/06 07:31:25;;;;;;;15.27;8.50;;;;;;;;;;4988797;28;20035;-65
2022/05/06 07:33:52;;;;;;;16.65;8.15;;;;;;;;;;5004663;28;20426;-66
2022/05/06 07:36:18;;;;;;;13.00;7.82;;;;;;;;;;4974639;28;20450;-65
2022/05/06 07:38:44;;;;;;;17.98;8.82;;;;;;;;;;4993431;28;20026;-65
2022/05/06 07:41:10;;;;;;;16.58;8.15;;;;;;;;;;4982272;28;20022;-66
2022/05/06 07:43:37;;;;;;;17.65;8.23;;;;;;;;;;4981457;28;20031;-66
2022/05/06 07:46:03;;;;;;;15.38;7.35;;;;;;;;;;4980665;28;20361;-66
2022/05/06 07:48:29;;;;;;;14.80;8.35;;;;;;;;;;4981883;28;20036;-65
2022/05/06 07:50:55;;;;;;;11.68;7.22;;;;;;;;;;4983018;28;20034;-65
2022/05/06 07:53:21;;;;;;;12.40;8.23;;;;;;;;;;4981360;28;20122;-65
2022/05/06 07:55:47;;;;;;;20.23;9.02;;;;;;;;;;4975014;28;20026;-66
2022/05/06 07:58:13;;;;;;;14.98;8.20;;;;;;;;;;4979357;28;20034;-65
2022/05/06 08:00:39;;;;;;;15.40;8.15;;;;;;;;;;4987447;28;20098;-66
2022/05/06 08:05:56;;;;;;;13.27;8.20;;;;;;;;;;4973280;28;20027;-66
2022/05/06 08:08:23;;;;;;;17.00;7.80;;;;;;;;;;4977041;28;20038;-66
2022/05/06 08:10:49;;;;;;;13.45;7.90;;;;;;;;;;4975235;28;20089;-66
2022/05/06 08:13:17;;;;;;;18.30;8.30;;;;;;;;;;4982732;28;20483;-66
2022/05/06 08:15:44;;;;;;;16.00;9.13;;;;;;;;;;4977774;28;20022;-66
2022/05/06 08:18:10;;;;;;;17.40;8.38;;;;;;;;;;4975989;28;20552;-65
2022/05/06 08:20:36;;;;;;;20.30;8.48;;;;;;;;;;4978924;28;20068;-66
2022/05/06 08:23:02;;;;;;;16.65;8.90;;;;;;;;;;4973208;28;20998;-66
2022/05/06 08:25:28;;;;;;;16.55;8.88;;;;;;;;;;4986527;28;20030;-66
2022/05/06 08:27:54;;;;;;;16.17;8.32;;;;;;;;;;5013741;28;20398;-66
2022/05/06 08:30:20;;;;;;;14.50;8.32;;;;;;;;;;4982262;28;20508;-65
2022/05/06 08:32:47;;;;;;;11.98;7.90;;;;;;;;;;4978873;28;20027;-65
2022/05/06 08:35:14;;;;;;;13.63;8.05;;;;;;;;;;4983930;28;20083;-65
2022/05/06 08:37:44;;;;;;;15.25;7.50;;;;;;;;;;4981379;28;20042;-65
2022/05/06 08:40:20;;;;;;;9.18;6.93;;;;;;;;;;4987143;28;20037;-65
2022/05/06 08:42:47;;;;;;;15.00;8.25;;;;;;;;;;4982660;28;20496;-65
2022/05/06 08:51:01;;;;;;;10.85;7.13;;;;;;;;;;5037951;28;20136;-65
2022/05/06 08:53:29;;;;;;;9.95;6.60;;;;;;;;;;5045197;28;20026;-65
2022/05/06 08:55:56;;;;;;;12.82;7.53;;;;;;;;;;5035617;28;20131;-65
2022/05/06 08:58:24;;;;;;;11.52;7.05;;;;;;;;;;5039933;28;20037;-65
2022/05/06 09:00:50;;;;;;;10.90;6.28;;;;;;;;;;5041474;28;20029;-65
2022/05/06 09:03:17;;;;;;;10.30;7.15;;;;;;;;;;5044804;28;20064;-65
2022/05/06 09:05:50;;;;;;;12.93;6.70;;;;;;;;;;5047493;28;20399;-65
2022/05/06 09:08:16;;;;;;;11.43;6.65;;;;;;;;;;5045660;28;20082;-65
2022/05/06 09:10:43;;;;;;;11.70;6.90;;;;;;;;;;5040358;28;20194;-65
2022/05/06 09:13:09;;;;;;;15.05;8.82;;;;;;;;;;5038392;28;20038;-65
2022/05/06 09:18:22;;;;;;;11.13;6.32;;;;;;;;;;5040013;28;20043;-66
2022/05/06 09:20:50;;;;;;;11.40;7.28;;;;;;;;;;5041698;28;20404;-65
2022/05/06 09:23:28;;;;;;;11.43;6.80;;;;;;;;;;4986462;28;20038;-65
2022/05/06 09:25:54;;;;;;;12.20;6.88;;;;;;;;;;4978969;28;20071;-65
2022/05/06 09:28:27;;;;;;;11.48;6.82;;;;;;;;;;4982690;28;20030;-65
2022/05/06 09:31:09;;;;;;;13.15;6.53;;;;;;;;;;4981570;28;20030;-65
2022/05/06 09:33:36;;;;;;;12.30;7.00;;;;;;;;;;4981167;28;20045;-65
2022/05/06 09:36:22;;;;;;;13.43;5.60;;;;;;;;;;4979489;28;20049;-66
2022/05/06 09:39:07;;;;;;;13.73;6.18;;;;;;;;;;4978039;28;20077;-66
2022/05/06 09:41:34;;;;;;;12.30;6.20;;;;;;;;;;4976554;28;20034;-65
2022/05/06 09:44:01;;;;;;;10.73;6.32;;;;;;;;;;4975456;28;20035;-65
2022/05/06 09:46:27;;;;;;;7.90;5.95;;;;;;;;;;4983025;28;20022;-65
2022/05/06 09:48:57;;;;;;;13.48;6.55;;;;;;;;;;4985517;28;20117;-66
2022/05/06 09:51:33;;;;;;;11.07;6.63;;;;;;;;;;4975957;28;20118;-65
2022/05/06 09:54:00;;;;;;;10.98;6.55;;;;;;;;;;4978501;28;20042;-66
2022/05/06 09:56:27;;;;;;;12.07;5.93;;;;;;;;;;4981198;28;20034;-66
2022/05/06 09:58:53;;;;;;;13.50;6.57;;;;;;;;;;4977090;28;20045;-66
2022/05/06 10:01:20;;;;;;;10.75;5.78;;;;;;;;;;4979528;28;20046;-66
2022/05/06 10:03:46;;;;;;;9.65;6.05;;;;;;;;;;4975667;28;20077;-66
2022/05/06 10:06:12;;;;;;;8.95;6.07;;;;;;;;;;4982119;28;20080;-66
2022/05/06 10:08:42;;;;;;;10.93;5.57;;;;;;;;;;4978031;28;20073;-66
2022/05/06 10:11:14;;;;;;;8.52;5.75;;;;;;;;;;4980722;28;20057;-66
2022/05/06 10:13:44;;;;;;;9.17;6.67;;;;;;;;;;4980022;28;20108;-66
2022/05/06 10:16:11;;;;;;;9.45;6.80;;;;;;;;;;4981091;28;20057;-65
2022/05/06 10:18:38;;;;;;;11.65;6.00;;;;;;;;;;4977248;28;20519;-65
2022/05/06 10:21:06;;;;;;;8.15;5.68;;;;;;;;;;4980279;28;20121;-66
2022/05/06 10:23:51;;;;;;;9.88;6.18;;;;;;;;;;4975553;28;20092;-65
2022/05/06 10:26:35;;;;;;;9.27;5.88;;;;;;;;;;4979643;28;20055;-65
2022/05/06 10:34:35;;;;;;;11.18;5.68;;;;;;;;;;4970619;28;20070;-65
2022/05/06 10:37:03;;;;;;;10.48;5.47;;;;;;;;;;4979602;28;20484;-66
2022/05/06 10:39:35;;;;;;;12.02;5.82;;;;;;;;;;4978390;28;20117;-66
2022/05/06 10:42:01;;;;;;;10.43;5.88;;;;;;;;;;4980436;28;20106;-66
2022/05/06 10:44:34;;;;;;;11.05;5.80;;;;;;;;;;4976890;28;20399;-66
2022/05/06 10:47:01;;;;;;;7.95;5.20;;;;;;;;;;4976836;28;20042;-66
2022/05/06 10:49:36;;;;;;;8.63;6.85;;;;;;;;;;4980362;28;20019;-65
2022/05/06 10:52:14;;;;;;;8.70;5.18;;;;;;;;;;4968419;28;20038;-66
2022/05/06 10:54:41;;;;;;;7.78;5.32;;;;;;;;;;4975157;28;20039;-66
2022/05/06 10:57:07;;;;;;;8.38;5.28;;;;;;;;;;4982452;28;20085;-66
2022/05/06 10:59:49;;;;;;;10.15;6.88;;;;;;;;;;4974307;28;20062;-66
2022/05/06 11:02:16;;;;;;;9.02;6.35;;;;;;;;;;4979601;28;20326;-66
2022/05/06 11:04:49;;;;;;;10.30;6.18;;;;;;;;;;4976461;28;20106;-66
2022/05/06 11:07:17;;;;;;;15.93;6.78;;;;;;;;;;4978294;28;20029;-66
2022/05/06 11:09:43;;;;;;;12.77;6.07;;;;;;;;;;4986039;28;20424;-66
2022/05/06 11:12:09;;;;;;;8.27;5.90;;;;;;;;;;4979769;28;20040;-66
2022/05/06 11:14:35;;;;;;;7.85;5.88;;;;;;;;;;4976429;28;20288;-66
2022/05/06 11:17:18;;;;;;;11.60;5.35;;;;;;;;;;4983041;28;20484;-66
2022/05/06 11:19:44;;;;;;;10.00;6.17;;;;;;;;;;4976758;28;20043;-66
2022/05/06 11:22:11;;;;;;;7.75;5.80;;;;;;;;;;4979602;28;20400;-66
2022/05/06 11:24:37;;;;;;;12.18;5.97;;;;;;;;;;4976190;28;20030;-66
2022/05/06 11:27:12;;;;;;;11.25;5.88;;;;;;;;;;4978079;28;20475;-66
2022/05/06 11:29:48;;;;;;;8.52;5.57;;;;;;;;;;4972235;28;20041;-66
2022/05/06 11:32:14;;;;;;;9.65;5.80;;;;;;;;;;4979827;28;20400;-66
2022/05/06 11:34:47;;;;;;;15.45;6.60;;;;;;;;;;4981050;28;20033;-66
2022/05/06 11:37:21;;;;;;;12.80;6.18;;;;;;;;;;4981250;28;20023;-66
2022/05/06 11:39:47;;;;;;;10.55;6.68;;;;;;;;;;4976840;28;20023;-66
2022/05/06 11:42:23;;;;;;;12.55;6.57;;;;;;;;;;4977073;28;20030;-66
2022/05/06 11:47:41;;;;;;;11.05;6.82;;;;;;;;;;4981180;28;20031;-66
2022/05/06 11:50:07;;;;;;;10.30;6.63;;;;;;;;;;4984639;28;20113;-66
2022/05/06 11:52:34;;;;;;;10.35;6.35;;;;;;;;;;4980960;28;20041;-66
2022/05/06 11:55:01;;;;;;;10.73;6.50;;;;;;;;;;4977713;28;20043;-66
2022/05/06 11:57:27;;;;;;;9.90;7.10;;;;;;;;;;4982655;28;20034;-66
2022/05/06 11:59:54;;;;;;;9.40;6.53;;;;;;;;;;4974231;28;20095;-66
2022/05/06 12:02:20;;;;;;;11.30;7.03;;;;;;;;;;4979370;28;20072;-66
2022/05/06 12:04:46;;;;;;;14.75;6.35;;;;;;;;;;4983684;28;20506;-66
2022/05/06 12:07:12;;;;;;;13.18;6.80;;;;;;;;;;4976602;28;20619;-66
2022/05/06 12:09:45;;;;;;;9.93;6.05;;;;;;;;;;4983567;28;20042;-66
2022/05/06 12:12:11;;;;;;;;;;;;;;;;;;4980632;28;20075;-66
2022/05/06 12:14:38;;;;;;;6.80;5.25;;;;;;;;;;4989809;28;19996;-66
2022/05/06 12:17:05;;;;;;;11.25;7.00;;;;;;;;;;4981103;28;20015;-66
2022/05/06 12:19:35;;;;;;;14.27;6.78;;;;;;;;;;4986634;28;20444;-66
2022/05/06 12:22:24;;;;;;;8.82;6.10;;;;;;;;;;4984578;28;20063;-66
2022/05/06 12:24:52;;;;;;;11.73;7.32;;;;;;;;;;4983151;28;20043;-66
2022/05/06 12:27:25;;;;;;;12.05;6.72;;;;;;;;;;4980283;28;20027;-66
2022/05/06 12:29:51;;;;;;;11.25;7.70;;;;;;;;;;4978308;28;20059;-66
2022/05/06 12:32:17;;;;;;;11.52;6.63;;;;;;;;;;4979513;28;20023;-66
2022/05/06 12:34:43;;;;;;;9.27;6.43;;;;;;;;;;4981014;28;20123;-66
2022/05/06 12:37:10;;;;;;;13.88;7.10;;;;;;;;;;4984638;28;20018;-66
2022/05/06 12:39:48;;;;;;;9.57;6.53;;;;;;;;;;4987505;28;20042;-66
2022/05/06 12:42:21;;;;;;;14.20;7.20;;;;;;;;;;4978382;28;20092;-66
2022/05/06 12:44:47;;;;;;;15.38;7.00;;;;;;;;;;4982908;28;20039;-66
2022/05/06 12:50:01;;;;;;;10.55;6.60;;;;;;;;;;4983273;28;20460;-66
2022/05/06 12:52:27;;;;;;;11.75;7.05;;;;;;;;;;4979339;28;20410;-66
2022/05/06 12:54:54;;;;;;;13.57;6.68;;;;;;;;;;4982583;28;20023;-67
2022/05/06 12:57:20;;;;;;;12.13;6.88;;;;;;;;;;4983760;28;20018;-66
2022/05/06 12:59:46;;;;;;;10.25;6.32;;;;;;;;;;4976152;28;20087;-67
2022/05/06 13:02:12;;;;;;;15.82;7.60;;;;;;;;;;4980029;28;20034;-66
2022/05/06 13:04:38;;;;;;;11.63;7.60;;;;;;;;;;4980601;28;20031;-66
2022/05/06 13:07:05;;;;;;;9.07;6.05;;;;;;;;;;4979059;28;20405;-67
2022/05/06 13:09:32;;;;;;;13.50;7.00;;;;;;;;;;4975241;28;20057;-66
2022/05/06 13:11:58;;;;;;;9.95;6.88;;;;;;;;;;4978764;28;20030;-66
2022/05/06 13:14:24;;;;;;;11.75;6.28;;;;;;;;;;4980865;28;20068;-66
2022/05/06 13:16:52;;;;;;;10.07;5.68;;;;;;;;;;4975140;28;20035;-66
2022/05/06 13:19:18;;;;;;;10.02;6.53;;;;;;;;;;4976790;28;20079;-66
2022/05/06 13:21:44;;;;;;;12.52;8.00;;;;;;;;;;4980571;28;20022;-67
2022/05/06 13:24:10;;;;;;;8.27;6.43;;;;;;;;;;4978337;28;20034;-66
2022/05/06 13:26:37;;;;;;;8.48;6.07;;;;;;;;;;4977095;28;20027;-67
2022/05/06 13:29:04;;;;;;;8.27;5.85;;;;;;;;;;4977487;28;20514;-67
2022/05/06 13:31:30;;;;;;;8.05;5.80;;;;;;;;;;4977119;28;20550;-66
2022/05/06 13:33:56;;;;;;;9.95;6.00;;;;;;;;;;4982945;28;20421;-67
2022/05/06 13:36:22;;;;;;;12.93;7.28;;;;;;;;;;4983446;28;20076;-67
2022/05/06 13:38:48;;;;;;;13.15;6.10;;;;;;;;;;4978261;28;20034;-66
2022/05/06 13:41:16;;;;;;;11.43;6.38;;;;;;;;;;4979751;28;20084;-67
2022/05/06 13:43:42;;;;;;;8.55;4.82;;;;;;;;;;4978371;28;20022;-67
2022/05/06 13:46:08;;;;;;;7.95;5.97;;;;;;;;;;4983635;28;20050;-66
2022/05/06 13:48:36;;;;;;;8.88;5.57;;;;;;;;;;4980120;28;20034;-66
2022/05/06 13:51:04;;;;;;;6.72;4.85;;;;;;;;;;4979249;28;20484;-66
2022/05/06 13:53:30;;;;;;;7.38;4.38;;;;;;;;;;4977891;28;20102;-67
2022/05/06 14:01:26;;;;;;;7.72;5.28;;;;;;;;;;4983284;28;20037;-66
2022/05/06 14:03:52;;;;;;;6.85;5.07;;;;;;;;;;4978709;28;20143;-66
2022/05/06 14:06:19;;;;;;;9.13;5.63;;;;;;;;;;4984717;28;20018;-67
2022/05/06 14:08:45;;;;;;;11.32;5.30;;;;;;;;;;4978159;28;20082;-67
2022/05/06 14:11:11;;;;;;;8.27;5.50;;;;;;;;;;4982733;28;20031;-66
2022/05/06 14:13:37;;;;;;;6.90;4.75;;;;;;;;;;4984068;28;20038;-66
2022/05/06 14:16:03;;;;;;;7.95;5.30;;;;;;;;;;4984554;28;20038;-66
2022/05/06 14:18:29;;;;;;;6.82;4.85;;;;;;;;;;4979736;28;20038;-66
2022/05/06 14:20:56;;;;;;;9.55;5.38;;;;;;;;;;4979891;28;20026;-66
2022/05/06 14:23:24;;;;;;;10.48;5.45;;;;;;;;;;4982129;28;20402;-66
2022/05/06 14:25:51;;;;;;;7.53;5.85;;;;;;;;;;4972004;28;20031;-66
2022/05/06 14:28:17;;;;;;;9.80;5.50;;;;;;;;;;4976680;28;20033;-66
2022/05/06 14:30:44;;;;;;;7.47;5.20;;;;;;;;;;4987462;28;20226;-66
2022/05/06 14:33:10;;;;;;;4.93;4.10;;;;;;;;;;4980834;28;20485;-66
2022/05/06 14:35:37;;;;;;;6.32;4.88;;;;;;;;;;4985939;28;20364;-66
2022/05/06 14:38:04;;;;;;;9.40;4.30;;;;;;;;;;4984534;28;20022;-66
2022/05/06 14:40:31;;;;;;;6.72;4.70;;;;;;;;;;4986789;28;20031;-66
2022/05/06 14:42:57;;;;;;;8.73;4.53;;;;;;;;;;4986915;28;20099;-66
2022/05/06 14:45:25;;;;;;;5.95;5.10;;;;;;;;;;4982073;28;20018;-66
2022/05/06 14:47:51;;;;;;;8.85;4.72;;;;;;;;;;4983504;28;20527;-66
2022/05/06 14:50:17;;;;;;;6.50;4.82;;;;;;;;;;4979895;28;20505;-66
2022/05/06 14:52:45;;;;;;;6.47;4.15;;;;;;;;;;4974973;28;20034;-66
2022/05/06 14:55:11;;;;;;;7.72;4.45;;;;;;;;;;4982216;28;20027;-66
2022/05/06 14:57:38;;;;;;;7.88;4.97;;;;;;;;;;4981156;28;20472;-66
2022/05/06 15:00:05;;;;;;;6.53;4.45;;;;;;;;;;4985879;28;20029;-66
2022/05/06 15:02:31;;;;;;;6.47;4.20;;;;;;;;;;4980202;28;20050;-66
2022/05/06 15:04:57;;;;;;;5.53;4.60;;;;;;;;;;4980334;28;20350;-66
2022/05/06 15:07:23;;;;;;;8.07;5.57;;;;;;;;;;4973431;28;20451;-66
2022/05/06 15:09:50;;;;;;;7.90;5.30;;;;;;;;;;4978550;28;20492;-66
2022/05/06 15:12:17;;;;;;;8.65;4.43;;;;;;;;;;4976371;28;20500;-66
2022/05/06 15:14:43;;;;;;;8.20;4.78;;;;;;;;;;4980154;28;20022;-66
2022/05/06 15:17:15;;;;;;;8.75;4.50;;;;;;;;;;4980857;28;20042;-66
2022/05/06 15:19:42;;;;;;;7.67;4.67;;;;;;;;;;4978642;28;20026;-66
2022/05/06 15:22:08;;;;;;;5.15;4.30;;;;;;;;;;4986970;28;20493;-66
2022/05/06 15:24:34;;;;;;;5.75;4.28;;;;;;;;;;4979341;28;20046;-66